sensor_id;sensor_type;location;lat;lon;timestamp;P1;durP1;ratioP1;P2;durP2;ratioP2
16093;SDS011;8151;47.824;12.092;2023-02-12T00:01:23;7.90;;;4.87;;
16093;SDS011;8151;47.824;12.092;2023-02-12T00:03:54;6.43;;;5.00;;
16093;SDS011;8151;47.824;12.092;2023-02-12T00:06:22;6.53;;;4.40;;
16093;SDS011;8151;47.824;12.092;2023-02-12T00:08:51;7.30;;;4.90;;
16093;SDS011;8151;47.824;12.092;2023-02-12T00:11:22;7.80;;;4.80;;
16093;SDS011;8151;47.824;12.092;2023-02-12T00:13:54;7.60;;;5.17;;
16093;SDS011;8151;47.824;12.092;2023-02-12T00:16:24;10.97;;;5.23;;
16093;SDS011;8151;47.824;12.092;2023-02-12T00:18:55;7.73;;;4.73;;
16093;SDS011;8151;47.824;12.092;2023-02-12T00:21:24;11.43;;;5.57;;
16093;SDS011;8151;47.824;12.092;2023-02-12T00:23:54;7.83;;;5.17;;
16093;SDS011;8151;47.824;12.092;2023-02-12T00:26:23;9.87;;;5.07;;
16093;SDS011;8151;47.824;12.092;2023-02-12T00:28:52;9.67;;;5.47;;
16093;SDS011;8151;47.824;12.092;2023-02-12T00:31:23;8.83;;;5.30;;
16093;SDS011;8151;47.824;12.092;2023-02-12T00:33:52;8.20;;;5.10;;
16093;SDS011;8151;47.824;12.092;2023-02-12T00:36:24;11.43;;;5.90;;
16093;SDS011;8151;47.824;12.092;2023-02-12T00:38:54;6.63;;;4.80;;
16093;SDS011;8151;47.824;12.092;2023-02-12T00:41:31;10.43;;;6.03;;
16093;SDS011;8151;47.824;12.092;2023-02-12T00:44:01;7.67;;;5.27;;
16093;SDS011;8151;47.824;12.092;2023-02-12T00:46:29;7.93;;;4.77;;
16093;SDS011;8151;47.824;12.092;2023-02-12T00:48:57;10.00;;;5.43;;
16093;SDS011;8151;47.824;12.092;2023-02-12T00:51:26;9.73;;;5.50;;
16093;SDS011;8151;47.824;12.092;2023-02-12T00:53:54;8.27;;;4.90;;
16093;SDS011;8151;47.824;12.092;2023-02-12T00:56:23;7.50;;;4.80;;
16093;SDS011;8151;47.824;12.092;2023-02-12T00:58:51;8.97;;;5.20;;
16093;SDS011;8151;47.824;12.092;2023-02-12T01:01:21;8.50;;;5.33;;
16093;SDS011;8151;47.824;12.092;2023-02-12T01:03:49;9.77;;;5.43;;
16093;SDS011;8151;47.824;12.092;2023-02-12T01:06:18;9.90;;;5.73;;
16093;SDS011;8151;47.824;12.092;2023-02-12T01:08:48;8.97;;;5.20;;
16093;SDS011;8151;47.824;12.092;2023-02-12T01:11:18;6.83;;;4.93;;
16093;SDS011;8151;47.824;12.092;2023-02-12T01:13:46;8.67;;;5.10;;
16093;SDS011;8151;47.824;12.092;2023-02-12T01:16:15;8.87;;;5.67;;
16093;SDS011;8151;47.824;12.092;2023-02-12T01:18:46;7.93;;;5.30;;
16093;SDS011;8151;47.824;12.092;2023-02-12T01:21:16;11.23;;;5.90;;
16093;SDS011;8151;47.824;12.092;2023-02-12T01:23:46;9.03;;;5.13;;
16093;SDS011;8151;47.824;12.092;2023-02-12T01:26:16;10.10;;;5.27;;
16093;SDS011;8151;47.824;12.092;2023-02-12T01:28:47;11.47;;;5.17;;
16093;SDS011;8151;47.824;12.092;2023-02-12T01:31:18;10.47;;;6.10;;
16093;SDS011;8151;47.824;12.092;2023-02-12T01:33:51;12.03;;;5.87;;
16093;SDS011;8151;47.824;12.092;2023-02-12T01:36:20;11.30;;;5.87;;
16093;SDS011;8151;47.824;12.092;2023-02-12T01:38:49;10.87;;;5.63;;
16093;SDS011;8151;47.824;12.092;2023-02-12T01:41:19;10.17;;;5.63;;
16093;SDS011;8151;47.824;12.092;2023-02-12T01:44:11;7.43;;;5.27;;
16093;SDS011;8151;47.824;12.092;2023-02-12T01:46:43;9.13;;;4.97;;
16093;SDS011;8151;47.824;12.092;2023-02-12T01:49:16;10.93;;;5.13;;
16093;SDS011;8151;47.824;12.092;2023-02-12T01:51:49;7.90;;;4.63;;
16093;SDS011;8151;47.824;12.092;2023-02-12T01:54:21;9.77;;;5.80;;
16093;SDS011;8151;47.824;12.092;2023-02-12T01:56:53;16.50;;;6.23;;
16093;SDS011;8151;47.824;12.092;2023-02-12T01:59:22;10.03;;;5.40;;
16093;SDS011;8151;47.824;12.092;2023-02-12T02:01:51;8.63;;;5.07;;
16093;SDS011;8151;47.824;12.092;2023-02-12T02:04:23;11.00;;;5.63;;
16093;SDS011;8151;47.824;12.092;2023-02-12T02:06:55;8.97;;;5.20;;
16093;SDS011;8151;47.824;12.092;2023-02-12T02:09:25;11.40;;;5.67;;
16093;SDS011;8151;47.824;12.092;2023-02-12T02:11:55;7.23;;;4.90;;
16093;SDS011;8151;47.824;12.092;2023-02-12T02:14:42;7.33;;;4.97;;
16093;SDS011;8151;47.824;12.092;2023-02-12T02:20:28;7.73;;;4.80;;
16093;SDS011;8151;47.824;12.092;2023-02-12T02:23:20;7.13;;;5.03;;
16093;SDS011;8151;47.824;12.092;2023-02-12T02:26:05;8.87;;;5.10;;
16093;SDS011;8151;47.824;12.092;2023-02-12T02:28:58;10.03;;;5.67;;
16093;SDS011;8151;47.824;12.092;2023-02-12T02:31:41;9.13;;;5.07;;
16093;SDS011;8151;47.824;12.092;2023-02-12T02:34:16;9.53;;;5.03;;
16093;SDS011;8151;47.824;12.092;2023-02-12T02:36:50;7.97;;;5.20;;
16093;SDS011;8151;47.824;12.092;2023-02-12T02:39:27;8.10;;;4.83;;
16093;SDS011;8151;47.824;12.092;2023-02-12T02:42:06;9.17;;;4.83;;
16093;SDS011;8151;47.824;12.092;2023-02-12T02:44:38;8.50;;;4.80;;
16093;SDS011;8151;47.824;12.092;2023-02-12T02:47:16;6.97;;;4.90;;
16093;SDS011;8151;47.824;12.092;2023-02-12T02:49:49;11.43;;;5.50;;
16093;SDS011;8151;47.824;12.092;2023-02-12T02:52:27;6.73;;;5.20;;
16093;SDS011;8151;47.824;12.092;2023-02-12T02:55:02;7.50;;;4.70;;
16093;SDS011;8151;47.824;12.092;2023-02-12T02:57:37;7.80;;;5.30;;
16093;SDS011;8151;47.824;12.092;2023-02-12T03:00:10;9.20;;;5.17;;
16093;SDS011;8151;47.824;12.092;2023-02-12T03:02:44;8.00;;;5.10;;
16093;SDS011;8151;47.824;12.092;2023-02-12T03:05:18;8.87;;;4.57;;
16093;SDS011;8151;47.824;12.092;2023-02-12T03:07:53;6.27;;;4.50;;
16093;SDS011;8151;47.824;12.092;2023-02-12T03:10:26;7.27;;;4.43;;
16093;SDS011;8151;47.824;12.092;2023-02-12T03:12:59;9.73;;;5.20;;
16093;SDS011;8151;47.824;12.092;2023-02-12T03:15:34;7.77;;;5.13;;
16093;SDS011;8151;47.824;12.092;2023-02-12T03:18:12;9.60;;;5.43;;
16093;SDS011;8151;47.824;12.092;2023-02-12T03:20:51;6.57;;;4.57;;
16093;SDS011;8151;47.824;12.092;2023-02-12T03:23:25;8.37;;;5.60;;
16093;SDS011;8151;47.824;12.092;2023-02-12T03:26:08;7.73;;;4.73;;
16093;SDS011;8151;47.824;12.092;2023-02-12T03:28:40;7.13;;;5.00;;
16093;SDS011;8151;47.824;12.092;2023-02-12T03:31:12;10.00;;;5.53;;
16093;SDS011;8151;47.824;12.092;2023-02-12T03:33:59;6.90;;;5.07;;
16093;SDS011;8151;47.824;12.092;2023-02-12T03:36:44;10.67;;;5.27;;
16093;SDS011;8151;47.824;12.092;2023-02-12T03:39:37;8.97;;;4.93;;
16093;SDS011;8151;47.824;12.092;2023-02-12T03:42:28;9.43;;;5.03;;
16093;SDS011;8151;47.824;12.092;2023-02-12T03:45:14;6.23;;;4.43;;
16093;SDS011;8151;47.824;12.092;2023-02-12T03:47:50;7.80;;;5.00;;
16093;SDS011;8151;47.824;12.092;2023-02-12T03:50:29;10.27;;;5.03;;
16093;SDS011;8151;47.824;12.092;2023-02-12T03:53:01;7.53;;;4.63;;
16093;SDS011;8151;47.824;12.092;2023-02-12T03:55:31;7.47;;;4.70;;
16093;SDS011;8151;47.824;12.092;2023-02-12T03:58:03;6.07;;;4.37;;
16093;SDS011;8151;47.824;12.092;2023-02-12T04:00:37;7.97;;;5.00;;
16093;SDS011;8151;47.824;12.092;2023-02-12T04:03:06;9.33;;;5.47;;
16093;SDS011;8151;47.824;12.092;2023-02-12T04:05:36;6.60;;;5.03;;
16093;SDS011;8151;47.824;12.092;2023-02-12T04:08:06;8.87;;;4.90;;
16093;SDS011;8151;47.824;12.092;2023-02-12T04:10:37;6.77;;;4.50;;
16093;SDS011;8151;47.824;12.092;2023-02-12T04:13:25;10.03;;;4.83;;
16093;SDS011;8151;47.824;12.092;2023-02-12T04:16:01;6.13;;;4.50;;
16093;SDS011;8151;47.824;12.092;2023-02-12T04:18:41;7.93;;;5.07;;
16093;SDS011;8151;47.824;12.092;2023-02-12T04:21:15;9.47;;;5.20;;
16093;SDS011;8151;47.824;12.092;2023-02-12T04:23:56;7.53;;;4.80;;
16093;SDS011;8151;47.824;12.092;2023-02-12T04:26:35;7.40;;;4.87;;
16093;SDS011;8151;47.824;12.092;2023-02-12T04:29:13;7.63;;;5.00;;
16093;SDS011;8151;47.824;12.092;2023-02-12T04:31:47;10.10;;;4.97;;
16093;SDS011;8151;47.824;12.092;2023-02-12T04:34:23;7.37;;;4.57;;
16093;SDS011;8151;47.824;12.092;2023-02-12T04:37:01;8.07;;;5.03;;
16093;SDS011;8151;47.824;12.092;2023-02-12T04:39:35;10.97;;;5.30;;
16093;SDS011;8151;47.824;12.092;2023-02-12T04:42:05;8.90;;;4.70;;
16093;SDS011;8151;47.824;12.092;2023-02-12T04:44:36;9.40;;;5.10;;
16093;SDS011;8151;47.824;12.092;2023-02-12T04:47:06;10.67;;;5.63;;
16093;SDS011;8151;47.824;12.092;2023-02-12T04:49:34;6.90;;;4.53;;
16093;SDS011;8151;47.824;12.092;2023-02-12T04:52:04;9.07;;;4.73;;
16093;SDS011;8151;47.824;12.092;2023-02-12T04:54:33;7.77;;;4.93;;
16093;SDS011;8151;47.824;12.092;2023-02-12T04:57:02;10.00;;;4.33;;
16093;SDS011;8151;47.824;12.092;2023-02-12T04:59:30;9.10;;;5.57;;
16093;SDS011;8151;47.824;12.092;2023-02-12T05:01:58;8.60;;;5.20;;
16093;SDS011;8151;47.824;12.092;2023-02-12T05:04:27;7.60;;;4.90;;
16093;SDS011;8151;47.824;12.092;2023-02-12T05:06:55;8.33;;;5.13;;
16093;SDS011;8151;47.824;12.092;2023-02-12T05:09:25;9.20;;;4.77;;
16093;SDS011;8151;47.824;12.092;2023-02-12T05:11:54;8.67;;;6.10;;
16093;SDS011;8151;47.824;12.092;2023-02-12T05:14:22;10.23;;;5.63;;
16093;SDS011;8151;47.824;12.092;2023-02-12T05:16:51;11.30;;;5.37;;
16093;SDS011;8151;47.824;12.092;2023-02-12T05:19:19;10.83;;;5.50;;
16093;SDS011;8151;47.824;12.092;2023-02-12T05:21:48;9.00;;;5.70;;
16093;SDS011;8151;47.824;12.092;2023-02-12T05:24:17;9.40;;;5.50;;
16093;SDS011;8151;47.824;12.092;2023-02-12T05:26:46;8.70;;;5.57;;
16093;SDS011;8151;47.824;12.092;2023-02-12T05:29:16;9.10;;;5.40;;
16093;SDS011;8151;47.824;12.092;2023-02-12T05:31:44;7.17;;;4.77;;
16093;SDS011;8151;47.824;12.092;2023-02-12T05:34:13;10.07;;;5.03;;
16093;SDS011;8151;47.824;12.092;2023-02-12T05:36:41;8.37;;;4.80;;
16093;SDS011;8151;47.824;12.092;2023-02-12T05:39:10;8.13;;;5.30;;
16093;SDS011;8151;47.824;12.092;2023-02-12T05:41:38;8.63;;;5.30;;
16093;SDS011;8151;47.824;12.092;2023-02-12T05:44:08;8.23;;;4.90;;
16093;SDS011;8151;47.824;12.092;2023-02-12T05:46:37;6.00;;;4.60;;
16093;SDS011;8151;47.824;12.092;2023-02-12T05:49:06;7.37;;;5.40;;
16093;SDS011;8151;47.824;12.092;2023-02-12T05:51:34;9.20;;;5.40;;
16093;SDS011;8151;47.824;12.092;2023-02-12T05:54:03;8.97;;;5.63;;
16093;SDS011;8151;47.824;12.092;2023-02-12T05:56:33;15.77;;;9.07;;
16093;SDS011;8151;47.824;12.092;2023-02-12T05:59:04;9.83;;;6.40;;
16093;SDS011;8151;47.824;12.092;2023-02-12T06:01:37;9.77;;;5.77;;
16093;SDS011;8151;47.824;12.092;2023-02-12T06:04:07;11.13;;;5.53;;
16093;SDS011;8151;47.824;12.092;2023-02-12T06:06:40;8.97;;;5.97;;
16093;SDS011;8151;47.824;12.092;2023-02-12T06:09:09;9.47;;;5.97;;
16093;SDS011;8151;47.824;12.092;2023-02-12T06:11:38;9.03;;;6.07;;
16093;SDS011;8151;47.824;12.092;2023-02-12T06:14:08;7.90;;;5.30;;
16093;SDS011;8151;47.824;12.092;2023-02-12T06:16:42;9.00;;;5.47;;
16093;SDS011;8151;47.824;12.092;2023-02-12T06:19:11;10.03;;;8.03;;
16093;SDS011;8151;47.824;12.092;2023-02-12T06:21:40;14.00;;;8.00;;
16093;SDS011;8151;47.824;12.092;2023-02-12T06:24:09;10.50;;;7.07;;
16093;SDS011;8151;47.824;12.092;2023-02-12T06:26:39;11.03;;;8.40;;
16093;SDS011;8151;47.824;12.092;2023-02-12T06:29:07;8.13;;;6.17;;
16093;SDS011;8151;47.824;12.092;2023-02-12T06:31:36;8.23;;;5.60;;
16093;SDS011;8151;47.824;12.092;2023-02-12T06:34:07;8.27;;;5.07;;
16093;SDS011;8151;47.824;12.092;2023-02-12T06:36:37;11.23;;;5.53;;
16093;SDS011;8151;47.824;12.092;2023-02-12T06:39:07;6.97;;;5.13;;
16093;SDS011;8151;47.824;12.092;2023-02-12T06:41:35;7.13;;;4.93;;
16093;SDS011;8151;47.824;12.092;2023-02-12T06:44:04;7.97;;;5.80;;
16093;SDS011;8151;47.824;12.092;2023-02-12T06:46:33;9.20;;;5.27;;
16093;SDS011;8151;47.824;12.092;2023-02-12T06:49:01;9.00;;;5.50;;
16093;SDS011;8151;47.824;12.092;2023-02-12T06:51:31;9.63;;;5.77;;
16093;SDS011;8151;47.824;12.092;2023-02-12T06:54:02;7.20;;;4.73;;
16093;SDS011;8151;47.824;12.092;2023-02-12T06:56:30;14.50;;;5.20;;
16093;SDS011;8151;47.824;12.092;2023-02-12T06:58:58;10.83;;;6.73;;
16093;SDS011;8151;47.824;12.092;2023-02-12T07:01:28;7.30;;;5.10;;
16093;SDS011;8151;47.824;12.092;2023-02-12T07:03:57;7.60;;;5.17;;
16093;SDS011;8151;47.824;12.092;2023-02-12T07:06:29;7.87;;;5.17;;
16093;SDS011;8151;47.824;12.092;2023-02-12T07:08:59;10.47;;;5.57;;
16093;SDS011;8151;47.824;12.092;2023-02-12T07:11:29;10.20;;;5.50;;
16093;SDS011;8151;47.824;12.092;2023-02-12T07:14:03;9.17;;;5.63;;
16093;SDS011;8151;47.824;12.092;2023-02-12T07:16:32;9.23;;;5.20;;
16093;SDS011;8151;47.824;12.092;2023-02-12T07:19:00;9.53;;;4.97;;
16093;SDS011;8151;47.824;12.092;2023-02-12T07:21:29;9.00;;;5.63;;
16093;SDS011;8151;47.824;12.092;2023-02-12T07:23:57;7.37;;;5.33;;
16093;SDS011;8151;47.824;12.092;2023-02-12T07:26:27;7.13;;;5.53;;
16093;SDS011;8151;47.824;12.092;2023-02-12T07:28:56;9.47;;;5.40;;
16093;SDS011;8151;47.824;12.092;2023-02-12T07:31:25;5.93;;;4.73;;
16093;SDS011;8151;47.824;12.092;2023-02-12T07:33:54;9.67;;;6.00;;
16093;SDS011;8151;47.824;12.092;2023-02-12T07:36:24;9.77;;;5.10;;
16093;SDS011;8151;47.824;12.092;2023-02-12T07:38:54;8.43;;;5.13;;
16093;SDS011;8151;47.824;12.092;2023-02-12T07:41:24;7.57;;;5.03;;
16093;SDS011;8151;47.824;12.092;2023-02-12T07:43:54;8.13;;;5.60;;
16093;SDS011;8151;47.824;12.092;2023-02-12T07:46:25;8.53;;;5.40;;
16093;SDS011;8151;47.824;12.092;2023-02-12T07:48:56;8.53;;;5.53;;
16093;SDS011;8151;47.824;12.092;2023-02-12T07:51:26;8.37;;;5.47;;
16093;SDS011;8151;47.824;12.092;2023-02-12T07:53:55;10.37;;;5.37;;
16093;SDS011;8151;47.824;12.092;2023-02-12T07:56:25;9.30;;;6.00;;
16093;SDS011;8151;47.824;12.092;2023-02-12T07:58:58;16.97;;;6.00;;
16093;SDS011;8151;47.824;12.092;2023-02-12T08:01:28;9.87;;;6.33;;
16093;SDS011;8151;47.824;12.092;2023-02-12T08:03:59;10.63;;;6.43;;
16093;SDS011;8151;47.824;12.092;2023-02-12T08:06:29;10.53;;;6.00;;
16093;SDS011;8151;47.824;12.092;2023-02-12T08:08:59;9.53;;;5.13;;
16093;SDS011;8151;47.824;12.092;2023-02-12T08:11:30;9.97;;;5.23;;
16093;SDS011;8151;47.824;12.092;2023-02-12T08:13:59;7.37;;;5.57;;
16093;SDS011;8151;47.824;12.092;2023-02-12T08:16:28;16.30;;;7.23;;
16093;SDS011;8151;47.824;12.092;2023-02-12T08:18:57;22.20;;;11.07;;
16093;SDS011;8151;47.824;12.092;2023-02-12T08:21:42;10.30;;;6.53;;
16093;SDS011;8151;47.824;12.092;2023-02-12T08:24:10;8.63;;;5.97;;
16093;SDS011;8151;47.824;12.092;2023-02-12T08:26:40;8.37;;;5.83;;
16093;SDS011;8151;47.824;12.092;2023-02-12T08:29:09;7.50;;;5.80;;
16093;SDS011;8151;47.824;12.092;2023-02-12T08:31:40;7.50;;;5.77;;
16093;SDS011;8151;47.824;12.092;2023-02-12T08:34:14;10.07;;;6.37;;
16093;SDS011;8151;47.824;12.092;2023-02-12T08:36:45;9.97;;;6.00;;
16093;SDS011;8151;47.824;12.092;2023-02-12T08:39:15;11.67;;;5.97;;
16093;SDS011;8151;47.824;12.092;2023-02-12T08:41:46;9.80;;;6.43;;
16093;SDS011;8151;47.824;12.092;2023-02-12T08:44:15;10.80;;;6.60;;
16093;SDS011;8151;47.824;12.092;2023-02-12T08:46:44;9.53;;;6.13;;
16093;SDS011;8151;47.824;12.092;2023-02-12T08:49:14;11.13;;;5.80;;
16093;SDS011;8151;47.824;12.092;2023-02-12T08:51:44;13.87;;;6.30;;
16093;SDS011;8151;47.824;12.092;2023-02-12T08:54:15;9.93;;;5.80;;
16093;SDS011;8151;47.824;12.092;2023-02-12T08:56:47;9.30;;;6.23;;
16093;SDS011;8151;47.824;12.092;2023-02-12T08:59:15;9.47;;;5.83;;
16093;SDS011;8151;47.824;12.092;2023-02-12T09:01:44;11.43;;;6.80;;
16093;SDS011;8151;47.824;12.092;2023-02-12T09:04:13;8.43;;;5.87;;
16093;SDS011;8151;47.824;12.092;2023-02-12T09:06:44;9.17;;;6.53;;
16093;SDS011;8151;47.824;12.092;2023-02-12T09:09:13;11.00;;;7.13;;
16093;SDS011;8151;47.824;12.092;2023-02-12T09:11:42;9.77;;;6.40;;
16093;SDS011;8151;47.824;12.092;2023-02-12T09:14:13;14.50;;;7.07;;
16093;SDS011;8151;47.824;12.092;2023-02-12T09:16:44;11.90;;;7.30;;
16093;SDS011;8151;47.824;12.092;2023-02-12T09:19:13;13.57;;;7.20;;
16093;SDS011;8151;47.824;12.092;2023-02-12T09:21:41;14.23;;;7.20;;
16093;SDS011;8151;47.824;12.092;2023-02-12T09:24:10;11.43;;;6.77;;
16093;SDS011;8151;47.824;12.092;2023-02-12T09:26:38;11.37;;;7.03;;
16093;SDS011;8151;47.824;12.092;2023-02-12T09:29:07;10.70;;;6.73;;
16093;SDS011;8151;47.824;12.092;2023-02-12T09:31:36;10.57;;;6.67;;
16093;SDS011;8151;47.824;12.092;2023-02-12T09:34:06;9.93;;;6.83;;
16093;SDS011;8151;47.824;12.092;2023-02-12T09:36:34;14.23;;;7.07;;
16093;SDS011;8151;47.824;12.092;2023-02-12T09:39:03;12.80;;;7.17;;
16093;SDS011;8151;47.824;12.092;2023-02-12T09:44:32;10.50;;;7.27;;
16093;SDS011;8151;47.824;12.092;2023-02-12T09:47:11;9.97;;;6.80;;
16093;SDS011;8151;47.824;12.092;2023-02-12T09:52:49;11.93;;;7.40;;
16093;SDS011;8151;47.824;12.092;2023-02-12T09:55:19;12.37;;;7.33;;
16093;SDS011;8151;47.824;12.092;2023-02-12T09:57:52;13.43;;;8.53;;
16093;SDS011;8151;47.824;12.092;2023-02-12T10:00:21;14.10;;;8.13;;
16093;SDS011;8151;47.824;12.092;2023-02-12T10:02:55;13.10;;;8.33;;
16093;SDS011;8151;47.824;12.092;2023-02-12T10:05:31;12.50;;;8.17;;
16093;SDS011;8151;47.824;12.092;2023-02-12T10:08:15;21.23;;;10.97;;
16093;SDS011;8151;47.824;12.092;2023-02-12T10:10:55;24.93;;;11.63;;
16093;SDS011;8151;47.824;12.092;2023-02-12T10:13:35;56.87;;;23.23;;
16093;SDS011;8151;47.824;12.092;2023-02-12T10:16:15;44.67;;;19.97;;
16093;SDS011;8151;47.824;12.092;2023-02-12T10:18:57;22.90;;;11.00;;
16093;SDS011;8151;47.824;12.092;2023-02-12T10:21:39;17.00;;;10.43;;
16093;SDS011;8151;47.824;12.092;2023-02-12T10:27:10;18.20;;;11.17;;
16093;SDS011;8151;47.824;12.092;2023-02-12T10:29:42;16.43;;;9.13;;
16093;SDS011;8151;47.824;12.092;2023-02-12T10:32:22;16.67;;;9.30;;
16093;SDS011;8151;47.824;12.092;2023-02-12T10:34:55;14.40;;;9.57;;
16093;SDS011;8151;47.824;12.092;2023-02-12T10:37:26;14.50;;;9.10;;
16093;SDS011;8151;47.824;12.092;2023-02-12T10:40:00;19.13;;;10.53;;
16093;SDS011;8151;47.824;12.092;2023-02-12T10:42:35;21.83;;;10.43;;
16093;SDS011;8151;47.824;12.092;2023-02-12T10:45:08;17.80;;;10.97;;
16093;SDS011;8151;47.824;12.092;2023-02-12T10:47:41;16.03;;;10.07;;
16093;SDS011;8151;47.824;12.092;2023-02-12T10:50:15;16.40;;;9.87;;
16093;SDS011;8151;47.824;12.092;2023-02-12T10:52:49;17.10;;;10.67;;
16093;SDS011;8151;47.824;12.092;2023-02-12T10:55:23;18.70;;;10.57;;
16093;SDS011;8151;47.824;12.092;2023-02-12T10:57:53;15.30;;;9.83;;
16093;SDS011;8151;47.824;12.092;2023-02-12T11:00:24;16.20;;;9.07;;
16093;SDS011;8151;47.824;12.092;2023-02-12T11:03:04;16.10;;;9.93;;
16093;SDS011;8151;47.824;12.092;2023-02-12T11:05:46;21.73;;;12.50;;
16093;SDS011;8151;47.824;12.092;2023-02-12T11:08:27;17.47;;;10.30;;
16093;SDS011;8151;47.824;12.092;2023-02-12T11:11:05;19.83;;;11.80;;
16093;SDS011;8151;47.824;12.092;2023-02-12T11:13:37;19.03;;;11.53;;
16093;SDS011;8151;47.824;12.092;2023-02-12T11:16:09;13.97;;;8.37;;
16093;SDS011;8151;47.824;12.092;2023-02-12T11:18:38;20.60;;;10.70;;
16093;SDS011;8151;47.824;12.092;2023-02-12T11:21:08;18.40;;;9.87;;
16093;SDS011;8151;47.824;12.092;2023-02-12T11:23:39;13.43;;;8.50;;
16093;SDS011;8151;47.824;12.092;2023-02-12T11:26:21;12.93;;;9.10;;
16093;SDS011;8151;47.824;12.092;2023-02-12T11:28:52;13.70;;;8.80;;
16093;SDS011;8151;47.824;12.092;2023-02-12T11:31:25;14.10;;;9.13;;
16093;SDS011;8151;47.824;12.092;2023-02-12T11:34:05;16.33;;;9.17;;
16093;SDS011;8151;47.824;12.092;2023-02-12T11:36:39;13.83;;;8.63;;
16093;SDS011;8151;47.824;12.092;2023-02-12T11:39:15;14.20;;;8.53;;
16093;SDS011;8151;47.824;12.092;2023-02-12T11:41:49;16.37;;;9.93;;
16093;SDS011;8151;47.824;12.092;2023-02-12T11:44:19;16.37;;;9.77;;
16093;SDS011;8151;47.824;12.092;2023-02-12T11:46:53;15.13;;;9.57;;
16093;SDS011;8151;47.824;12.092;2023-02-12T11:49:24;15.93;;;9.77;;
16093;SDS011;8151;47.824;12.092;2023-02-12T11:51:58;15.50;;;9.13;;
16093;SDS011;8151;47.824;12.092;2023-02-12T11:54:30;17.30;;;10.33;;
16093;SDS011;8151;47.824;12.092;2023-02-12T11:57:05;14.83;;;9.63;;
16093;SDS011;8151;47.824;12.092;2023-02-12T11:59:34;13.40;;;8.67;;
16093;SDS011;8151;47.824;12.092;2023-02-12T12:02:10;16.13;;;9.67;;
16093;SDS011;8151;47.824;12.092;2023-02-12T12:04:45;14.80;;;8.60;;
16093;SDS011;8151;47.824;12.092;2023-02-12T12:07:19;10.97;;;7.40;;
16093;SDS011;8151;47.824;12.092;2023-02-12T12:09:54;12.77;;;8.40;;
16093;SDS011;8151;47.824;12.092;2023-02-12T12:12:28;12.30;;;7.30;;
16093;SDS011;8151;47.824;12.092;2023-02-12T12:15:05;12.33;;;7.67;;
16093;SDS011;8151;47.824;12.092;2023-02-12T12:18:03;13.30;;;7.20;;
16093;SDS011;8151;47.824;12.092;2023-02-12T12:21:02;15.03;;;8.80;;
16093;SDS011;8151;47.824;12.092;2023-02-12T12:23:40;12.80;;;7.70;;
16093;SDS011;8151;47.824;12.092;2023-02-12T12:26:17;10.83;;;7.50;;
16093;SDS011;8151;47.824;12.092;2023-02-12T12:28:50;14.20;;;6.53;;
16093;SDS011;8151;47.824;12.092;2023-02-12T12:31:26;9.40;;;6.53;;
16093;SDS011;8151;47.824;12.092;2023-02-12T12:33:58;12.83;;;7.40;;
16093;SDS011;8151;47.824;12.092;2023-02-12T12:36:44;11.70;;;8.00;;
16093;SDS011;8151;47.824;12.092;2023-02-12T12:39:34;12.87;;;7.73;;
16093;SDS011;8151;47.824;12.092;2023-02-12T12:45:14;14.93;;;8.97;;
16093;SDS011;8151;47.824;12.092;2023-02-12T12:47:55;11.87;;;7.67;;
16093;SDS011;8151;47.824;12.092;2023-02-12T12:50:41;13.80;;;7.20;;
16093;SDS011;8151;47.824;12.092;2023-02-12T12:53:27;12.27;;;7.30;;
16093;SDS011;8151;47.824;12.092;2023-02-12T12:56:22;12.30;;;8.10;;
16093;SDS011;8151;47.824;12.092;2023-02-12T12:59:11;11.87;;;8.03;;
16093;SDS011;8151;47.824;12.092;2023-02-12T13:02:08;10.47;;;7.23;;
16093;SDS011;8151;47.824;12.092;2023-02-12T13:05:12;11.33;;;7.40;;
16093;SDS011;8151;47.824;12.092;2023-02-12T13:07:53;12.63;;;7.60;;
16093;SDS011;8151;47.824;12.092;2023-02-12T13:10:32;14.40;;;10.77;;
16093;SDS011;8151;47.824;12.092;2023-02-12T13:13:14;10.83;;;6.77;;
16093;SDS011;8151;47.824;12.092;2023-02-12T13:15:54;10.93;;;6.20;;
16093;SDS011;8151;47.824;12.092;2023-02-12T13:18:39;9.33;;;6.47;;
16093;SDS011;8151;47.824;12.092;2023-02-12T13:21:16;9.67;;;6.73;;
16093;SDS011;8151;47.824;12.092;2023-02-12T13:23:52;9.97;;;6.10;;
16093;SDS011;8151;47.824;12.092;2023-02-12T13:26:26;10.20;;;6.50;;
16093;SDS011;8151;47.824;12.092;2023-02-12T13:29:03;10.07;;;6.40;;
16093;SDS011;8151;47.824;12.092;2023-02-12T13:31:35;8.60;;;5.93;;
16093;SDS011;8151;47.824;12.092;2023-02-12T13:34:10;9.20;;;6.20;;
16093;SDS011;8151;47.824;12.092;2023-02-12T13:36:42;10.23;;;6.87;;
16093;SDS011;8151;47.824;12.092;2023-02-12T13:39:14;10.90;;;6.97;;
16093;SDS011;8151;47.824;12.092;2023-02-12T13:41:53;11.23;;;6.80;;
16093;SDS011;8151;47.824;12.092;2023-02-12T13:44:39;11.30;;;7.80;;
16093;SDS011;8151;47.824;12.092;2023-02-12T13:47:15;9.37;;;6.63;;
16093;SDS011;8151;47.824;12.092;2023-02-12T13:49:53;11.53;;;6.27;;
16093;SDS011;8151;47.824;12.092;2023-02-12T13:52:29;7.73;;;5.90;;
16093;SDS011;8151;47.824;12.092;2023-02-12T13:55:10;8.17;;;6.20;;
16093;SDS011;8151;47.824;12.092;2023-02-12T14:00:59;11.70;;;6.13;;
16093;SDS011;8151;47.824;12.092;2023-02-12T14:03:29;11.20;;;6.27;;
16093;SDS011;8151;47.824;12.092;2023-02-12T14:06:12;10.23;;;7.00;;
16093;SDS011;8151;47.824;12.092;2023-02-12T14:08:43;8.57;;;6.23;;
16093;SDS011;8151;47.824;12.092;2023-02-12T14:11:14;14.27;;;7.33;;
16093;SDS011;8151;47.824;12.092;2023-02-12T14:13:47;9.67;;;6.20;;
16093;SDS011;8151;47.824;12.092;2023-02-12T14:16:36;9.57;;;6.27;;
16093;SDS011;8151;47.824;12.092;2023-02-12T14:22:12;11.97;;;8.33;;
16093;SDS011;8151;47.824;12.092;2023-02-12T14:25:09;11.07;;;7.07;;
16093;SDS011;8151;47.824;12.092;2023-02-12T14:27:56;12.00;;;7.67;;
16093;SDS011;8151;47.824;12.092;2023-02-12T14:30:33;12.20;;;7.03;;
16093;SDS011;8151;47.824;12.092;2023-02-12T14:38:55;9.10;;;6.93;;
16093;SDS011;8151;47.824;12.092;2023-02-12T14:41:28;10.90;;;7.13;;
16093;SDS011;8151;47.824;12.092;2023-02-12T14:47:13;20.87;;;10.60;;
16093;SDS011;8151;47.824;12.092;2023-02-12T14:50:04;12.10;;;8.10;;
16093;SDS011;8151;47.824;12.092;2023-02-12T14:52:42;13.40;;;9.00;;
16093;SDS011;8151;47.824;12.092;2023-02-12T14:55:17;9.93;;;7.43;;
16093;SDS011;8151;47.824;12.092;2023-02-12T14:57:50;11.87;;;7.97;;
16093;SDS011;8151;47.824;12.092;2023-02-12T15:00:26;13.83;;;8.90;;
16093;SDS011;8151;47.824;12.092;2023-02-12T15:02:59;10.30;;;8.07;;
16093;SDS011;8151;47.824;12.092;2023-02-12T15:05:33;11.90;;;8.63;;
16093;SDS011;8151;47.824;12.092;2023-02-12T15:08:06;12.73;;;8.73;;
16093;SDS011;8151;47.824;12.092;2023-02-12T15:10:45;13.73;;;9.17;;
16093;SDS011;8151;47.824;12.092;2023-02-12T15:13:22;15.43;;;8.13;;
16093;SDS011;8151;47.824;12.092;2023-02-12T15:15:56;12.33;;;7.23;;
16093;SDS011;8151;47.824;12.092;2023-02-12T15:18:34;14.97;;;8.83;;
16093;SDS011;8151;47.824;12.092;2023-02-12T15:21:14;16.90;;;11.67;;
16093;SDS011;8151;47.824;12.092;2023-02-12T15:23:47;18.27;;;12.63;;
16093;SDS011;8151;47.824;12.092;2023-02-12T15:26:24;15.77;;;10.63;;
16093;SDS011;8151;47.824;12.092;2023-02-12T15:28:56;14.97;;;9.07;;
16093;SDS011;8151;47.824;12.092;2023-02-12T15:31:25;11.43;;;7.13;;
16093;SDS011;8151;47.824;12.092;2023-02-12T15:33:56;9.97;;;7.40;;
16093;SDS011;8151;47.824;12.092;2023-02-12T15:36:27;12.77;;;7.53;;
16093;SDS011;8151;47.824;12.092;2023-02-12T15:38:59;10.00;;;6.97;;
16093;SDS011;8151;47.824;12.092;2023-02-12T15:41:37;10.90;;;7.20;;
16093;SDS011;8151;47.824;12.092;2023-02-12T15:44:20;12.67;;;7.13;;
16093;SDS011;8151;47.824;12.092;2023-02-12T15:46:58;10.60;;;7.23;;
16093;SDS011;8151;47.824;12.092;2023-02-12T15:49:38;22.53;;;12.07;;